Time;durP1;ratioP1;P1;durP2;ratioP2;P2;SDS_P1;SDS_P2;PMS_P1;PMS_P2;Temp;Humidity;BMP_temperature;BMP_pressure;BME280_temperature;BME280_humidity;BME280_pressure;Samples;Min_cycle;Max_cycle;Signal;HPM_P1;HPM_P2
2023/01/31 00:01:16;;;;;;;17.55;6.65;;;5.60;99.90;;;;;;5052314;28;20025;-71
2023/01/31 00:03:42;;;;;;;15.60;6.25;;;5.40;99.90;;;;;;5051992;28;20032;-70
2023/01/31 00:06:19;;;;;;;20.92;6.13;;;5.40;99.90;;;;;;5051973;28;20066;-71
2023/01/31 00:08:46;;;;;;;17.05;6.28;;;5.40;99.90;;;;;;5052518;28;20383;-72
2023/01/31 00:11:14;;;;;;;18.95;6.25;;;5.50;99.90;;;;;;5051468;28;20044;-71
2023/01/31 00:13:40;;;;;;;16.55;6.13;;;5.50;99.90;;;;;;5051786;28;20500;-69
2023/01/31 00:16:07;;;;;;;21.30;6.85;;;5.60;99.90;;;;;;5053633;28;20051;-70
2023/01/31 00:18:34;;;;;;;21.13;6.32;;;5.60;99.90;;;;;;5051088;28;20028;-71
2023/01/31 00:21:14;;;;;;;18.60;7.07;;;5.60;99.90;;;;;;5051357;28;20035;-70
2023/01/31 00:23:41;;;;;;;20.33;7.30;;;5.70;99.90;;;;;;5051379;28;20485;-70
2023/01/31 00:26:21;;;;;;;21.50;7.38;;;5.80;99.90;;;;;;5051390;28;20552;-70
2023/01/31 00:28:48;;;;;;;29.70;8.05;;;5.80;99.90;;;;;;5051156;28;20031;-70
2023/01/31 00:31:15;;;;;;;27.88;7.15;;;5.90;99.90;;;;;;5051245;28;20021;-71
2023/01/31 00:33:42;;;;;;;28.35;7.63;;;5.80;99.90;;;;;;5051141;28;20025;-71
2023/01/31 00:36:17;;;;;;;26.95;7.15;;;5.80;99.90;;;;;;5050884;28;20116;-70
2023/01/31 00:38:43;;;;;;;23.77;7.00;;;5.80;99.90;;;;;;5050818;28;20551;-70
2023/01/31 00:41:10;;;;;;;30.23;7.43;;;5.90;99.90;;;;;;5051098;28;20032;-70
2023/01/31 00:43:35;;;;;;;26.02;7.20;;;5.90;99.90;;;;;;5051032;28;20025;-70
2023/01/31 00:46:02;;;;;;;21.63;7.38;;;6.00;99.90;;;;;;5050884;28;20499;-71
2023/01/31 00:48:28;;;;;;;24.25;7.72;;;6.00;99.90;;;;;;5051047;28;20039;-71
2023/01/31 00:50:54;;;;;;;20.95;7.03;;;5.90;99.90;;;;;;5051097;28;20108;-70
2023/01/31 00:53:22;;;;;;;17.20;6.20;;;5.90;99.90;;;;;;5050893;28;20064;-70
2023/01/31 00:55:49;;;;;;;26.15;6.20;;;5.90;99.90;;;;;;5051160;28;20072;-70
2023/01/31 00:58:15;;;;;;;19.45;5.90;;;5.90;99.90;;;;;;5050768;28;20048;-70
2023/01/31 01:00:41;;;;;;;17.40;6.30;;;6.00;99.90;;;;;;5050769;28;20354;-70
2023/01/31 01:03:06;;;;;;;19.52;7.20;;;6.00;99.90;;;;;;5050902;28;20053;-70
2023/01/31 01:05:32;;;;;;;19.15;6.05;;;5.90;99.90;;;;;;5050882;28;20044;-71
2023/01/31 01:07:58;;;;;;;19.20;6.55;;;5.90;99.90;;;;;;5050962;28;20017;-70
2023/01/31 01:10:24;;;;;;;21.35;6.55;;;5.90;99.90;;;;;;5050722;28;20029;-70
2023/01/31 01:12:49;;;;;;;20.13;6.20;;;6.00;99.90;;;;;;5050909;28;20025;-70
2023/01/31 01:15:16;;;;;;;20.95;7.13;;;6.00;99.90;;;;;;5049533;28;20071;-70
2023/01/31 01:17:41;;;;;;;16.58;6.75;;;6.00;99.90;;;;;;5050531;28;20523;-70
2023/01/31 01:20:08;;;;;;;21.45;6.30;;;5.90;99.90;;;;;;5050751;28;20025;-71
2023/01/31 01:22:35;;;;;;;18.90;5.97;;;5.80;99.90;;;;;;5050730;28;20021;-70
2023/01/31 01:25:01;;;;;;;22.88;6.20;;;5.80;99.90;;;;;;5054627;28;20025;-70
2023/01/31 01:27:27;;;;;;;22.50;6.15;;;5.80;99.90;;;;;;5054489;28;20482;-70
2023/01/31 01:29:53;;;;;;;26.38;6.65;;;5.90;99.90;;;;;;5054425;28;20032;-70
2023/01/31 01:32:19;;;;;;;18.40;5.88;;;5.90;99.90;;;;;;5054531;28;20025;-70
2023/01/31 01:34:44;;;;;;;27.33;7.18;;;6.00;99.90;;;;;;5054699;28;20028;-70
2023/01/31 01:37:18;;;;;;;21.75;6.22;;;6.00;99.90;;;;;;5054385;28;20017;-70
2023/01/31 01:39:51;;;;;;;27.25;5.88;;;6.10;99.90;;;;;;5054242;28;20040;-70
2023/01/31 01:42:19;;;;;;;27.92;6.45;;;6.10;99.90;;;;;;5054455;28;20025;-70
2023/01/31 01:44:58;;;;;;;19.45;5.90;;;6.30;99.90;;;;;;5054236;28;20485;-70
2023/01/31 01:47:32;;;;;;;30.10;6.20;;;6.50;99.90;;;;;;5054156;28;20473;-69
2023/01/31 01:50:03;;;;;;;23.05;6.05;;;6.60;99.90;;;;;;5054009;28;20036;-69
2023/01/31 01:52:33;;;;;;;22.00;6.03;;;6.70;99.90;;;;;;5053996;28;20106;-70
2023/01/31 01:55:13;;;;;;;21.65;5.82;;;6.70;99.90;;;;;;5054225;28;20036;-69
2023/01/31 01:57:42;;;;;;;27.75;5.95;;;6.70;99.90;;;;;;5054378;28;20033;-70
2023/01/31 02:00:18;;;;;;;17.00;4.82;;;6.80;99.90;;;;;;5052572;28;20029;-70
2023/01/31 02:02:46;;;;;;;14.75;5.72;;;7.00;99.90;;;;;;5054219;28;20025;-71
2023/01/31 02:05:16;;;;;;;18.58;5.55;;;7.20;99.90;;;;;;5054116;28;20021;-71
2023/01/31 02:07:42;;;;;;;16.55;5.25;;;7.30;99.90;;;;;;5053831;28;20044;-70
2023/01/31 02:10:23;;;;;;;15.88;4.80;;;7.40;99.90;;;;;;5054419;28;20086;-70
2023/01/31 02:12:48;;;;;;;22.20;4.70;;;7.50;99.90;;;;;;5054295;28;20044;-70
2023/01/31 02:15:14;;;;;;;16.58;5.13;;;7.60;99.90;;;;;;5053904;28;20677;-70
2023/01/31 02:17:40;;;;;;;16.05;4.75;;;7.60;99.90;;;;;;5053485;28;20052;-71
2023/01/31 02:20:32;;;;;;;20.83;4.75;;;7.60;99.90;;;;;;5053468;28;20031;-70
2023/01/31 02:23:03;;;;;;;24.93;5.57;;;7.60;99.90;;;;;;5053485;28;20036;-70
2023/01/31 02:26:00;;;;;;;19.37;5.10;;;7.60;99.90;;;;;;5053474;28;20032;-70
2023/01/31 02:28:55;;;;;;;20.42;4.72;;;7.60;99.90;;;;;;5016647;28;20041;-71
2023/01/31 02:31:39;;;;;;;19.02;4.28;;;7.70;99.90;;;;;;5047535;28;20033;-69
2023/01/31 02:34:08;;;;;;;17.15;4.75;;;7.70;99.90;;;;;;5052598;28;20024;-70
2023/01/31 02:36:59;;;;;;;29.40;5.78;;;7.70;99.90;;;;;;5052933;28;20437;-69
2023/01/31 02:39:53;;;;;;;11.27;4.18;;;7.70;99.90;;;;;;5052909;28;20511;-70
2023/01/31 02:42:45;;;;;;;11.90;4.15;;;7.70;99.90;;;;;;5053045;28;20351;-70
2023/01/31 02:45:28;;;;;;;21.92;7.07;;;7.80;99.90;;;;;;5053098;28;20021;-71
2023/01/31 02:48:15;;;;;;;22.10;4.95;;;7.80;99.90;;;;;;5052927;28;20481;-71
2023/01/31 02:50:52;;;;;;;18.77;5.32;;;7.80;99.90;;;;;;5053092;28;20048;-70
2023/01/31 02:53:24;;;;;;;20.25;5.13;;;7.80;99.90;;;;;;5052659;28;20032;-70
2023/01/31 02:56:14;;;;;;;14.90;3.97;;;7.80;99.90;;;;;;5053063;28;20086;-70
2023/01/31 02:58:43;;;;;;;18.85;4.28;;;7.80;99.90;;;;;;5052680;28;20041;-69
2023/01/31 03:01:16;;;;;;;13.60;4.43;;;7.80;99.90;;;;;;5052868;28;20029;-70
2023/01/31 03:03:42;;;;;;;15.52;4.13;;;7.80;99.90;;;;;;5052597;28;20025;-71
2023/01/31 03:06:24;;;;;;;15.40;4.57;;;7.80;99.90;;;;;;5052545;28;20071;-70
2023/01/31 03:08:52;;;;;;;;;;;7.80;99.90;;;;;;5053072;28;20043;-71
2023/01/31 03:11:21;;;;;;;16.02;3.65;;;7.80;99.90;;;;;;5052487;28;19905;-70
2023/01/31 03:14:17;;;;;;;14.20;3.95;;;7.80;99.90;;;;;;5052462;28;20686;-70
2023/01/31 03:20:12;;;;;;;14.20;3.92;;;7.80;99.90;;;;;;5052239;28;20040;-70
2023/01/31 03:22:53;;;;;;;11.98;3.13;;;7.80;99.90;;;;;;5052114;28;20020;-70
2023/01/31 03:25:22;;;;;;;14.88;3.97;;;7.80;99.90;;;;;;5052143;28;20446;-70
2023/01/31 03:27:55;;;;;;;14.07;4.10;;;7.80;99.90;;;;;;5052749;28;20044;-70
2023/01/31 03:30:25;;;;;;;;;;;7.70;99.90;;;;;;5052934;28;20029;-70
2023/01/31 03:33:05;;;;;;;18.60;4.45;;;7.60;99.90;;;;;;5052615;28;19923;-69
2023/01/31 03:35:34;;;;;;;22.63;4.63;;;7.60;99.90;;;;;;5052717;28;20044;-69
2023/01/31 03:38:00;;;;;;;12.98;3.45;;;7.60;99.90;;;;;;5051753;28;20029;-70
2023/01/31 03:40:36;;;;;;;19.98;3.65;;;7.60;99.90;;;;;;5053303;28;20036;-71
2023/01/31 03:43:54;;;;;;;16.52;3.92;;;7.50;99.90;;;;;;5053265;28;20017;-70
2023/01/31 03:46:29;;;;;;;21.08;4.80;;;7.50;99.90;;;;;;5009754;28;20097;-70
2023/01/31 03:48:57;;;;;;;16.23;3.42;;;7.40;99.90;;;;;;4993308;28;20087;-69
2023/01/31 03:51:28;;;;;;;20.60;4.45;;;7.50;99.90;;;;;;5036423;28;20060;-69
2023/01/31 03:53:59;;;;;;;12.65;3.53;;;7.40;99.90;;;;;;5051659;28;20025;-69
2023/01/31 03:56:44;;;;;;;11.82;3.95;;;7.30;99.90;;;;;;5051880;28;20050;-70
2023/01/31 03:59:22;;;;;;;21.83;4.07;;;7.30;99.90;;;;;;5051377;28;20045;-70
2023/01/31 04:01:50;;;;;;;16.25;3.92;;;7.30;99.90;;;;;;5051786;28;20029;-71
2023/01/31 04:04:20;;;;;;;17.67;3.88;;;7.20;99.90;;;;;;5051423;28;20025;-71
2023/01/31 04:06:45;;;;;;;16.48;3.58;;;7.20;99.90;;;;;;5051767;28;20032;-71
2023/01/31 04:09:11;;;;;;;15.45;4.40;;;7.30;99.90;;;;;;5051649;28;20029;-71
2023/01/31 04:11:40;;;;;;;9.13;3.10;;;7.30;99.90;;;;;;5051618;28;20025;-70
2023/01/31 04:14:07;;;;;;;19.55;4.57;;;7.40;99.90;;;;;;5051369;28;20053;-70
2023/01/31 04:16:33;;;;;;;21.35;3.83;;;7.50;99.90;;;;;;5051166;28;20053;-69
2023/01/31 04:18:59;;;;;;;13.50;3.42;;;7.50;99.90;;;;;;5051374;28;20500;-70
2023/01/31 04:21:24;;;;;;;17.35;3.25;;;7.60;99.90;;;;;;5051127;28;20374;-69
2023/01/31 04:23:50;;;;;;;12.07;2.75;;;7.60;99.90;;;;;;5051455;28;20070;-70
2023/01/31 04:26:16;;;;;;;12.00;2.85;;;7.60;99.90;;;;;;5051235;28;20021;-70
2023/01/31 04:28:42;;;;;;;13.38;3.20;;;7.60;99.90;;;;;;5051251;28;20025;-70
2023/01/31 04:31:07;;;;;;;16.27;3.53;;;7.70;99.90;;;;;;5051235;28;20029;-70
2023/01/31 04:33:33;;;;;;;22.67;3.85;;;7.70;99.90;;;;;;5050984;28;20035;-69
2023/01/31 04:35:59;;;;;;;17.15;4.22;;;7.80;99.90;;;;;;5051127;28;20108;-70
2023/01/31 04:38:24;;;;;;;16.55;3.80;;;7.80;99.90;;;;;;5051011;28;20504;-70
2023/01/31 04:40:50;;;;;;;21.65;3.42;;;7.80;99.90;;;;;;5050989;28;20527;-69
2023/01/31 04:43:16;;;;;;;23.77;3.55;;;7.80;99.90;;;;;;5051238;28;20516;-69
2023/01/31 04:45:42;;;;;;;9.70;3.90;;;7.80;99.90;;;;;;5050858;28;20031;-70
2023/01/31 04:48:07;;;;;;;13.70;3.53;;;7.80;99.90;;;;;;5049735;28;20108;-70
2023/01/31 04:50:33;;;;;;;14.18;4.03;;;7.80;99.90;;;;;;5051206;28;20029;-69
2023/01/31 04:52:59;;;;;;;11.77;3.08;;;7.80;99.90;;;;;;5050987;28;20473;-69
2023/01/31 04:55:26;;;;;;;17.38;5.03;;;7.90;99.90;;;;;;5050907;28;20049;-70
2023/01/31 04:57:52;;;;;;;15.20;3.70;;;7.90;99.90;;;;;;5051507;28;20052;-69
2023/01/31 05:00:18;;;;;;;13.25;3.58;;;8.00;99.90;;;;;;5055010;28;20071;-70
2023/01/31 05:02:44;;;;;;;23.92;3.78;;;7.90;99.90;;;;;;5054972;28;20033;-70
2023/01/31 05:05:11;;;;;;;15.27;3.05;;;7.90;99.90;;;;;;5054905;28;20036;-70
2023/01/31 05:07:38;;;;;;;17.52;3.75;;;7.90;99.90;;;;;;5053511;28;20420;-70
2023/01/31 05:10:04;;;;;;;13.77;2.97;;;7.90;99.90;;;;;;5054797;28;20025;-70
2023/01/31 05:12:30;;;;;;;13.18;3.10;;;7.90;99.90;;;;;;5054889;28;20033;-69
2023/01/31 05:14:56;;;;;;;19.83;3.67;;;8.00;99.90;;;;;;5054727;28;20056;-70
2023/01/31 05:17:28;;;;;;;14.52;3.90;;;8.10;99.90;;;;;;5054381;28;20029;-70
2023/01/31 05:19:57;;;;;;;;;;;8.10;99.90;;;;;;5054921;28;20481;-70
2023/01/31 05:22:23;;;;;;;16.55;3.22;;;8.10;99.90;;;;;;5054563;28;20399;-70
2023/01/31 05:24:49;;;;;;;13.32;2.78;;;8.10;99.90;;;;;;5053258;28;20032;-70
2023/01/31 05:27:15;;;;;;;19.70;3.42;;;8.20;99.90;;;;;;5054543;28;20350;-70
2023/01/31 05:29:41;;;;;;;18.77;3.05;;;8.20;99.90;;;;;;5054689;28;20125;-70
2023/01/31 05:32:07;;;;;;;9.13;2.90;;;8.20;99.90;;;;;;5054473;28;20104;-70
2023/01/31 05:34:33;;;;;;;14.07;2.58;;;8.20;99.90;;;;;;5054540;28;20032;-70
2023/01/31 05:36:59;;;;;;;11.57;2.72;;;8.30;99.90;;;;;;5054357;28;20029;-70
2023/01/31 05:39:25;;;;;;;11.95;2.97;;;8.40;99.90;;;;;;5052965;28;20032;-70
2023/01/31 05:41:51;;;;;;;9.70;2.00;;;8.40;99.90;;;;;;5054406;28;20021;-69
2023/01/31 05:44:18;;;;;;;17.83;2.75;;;8.40;99.90;;;;;;5054327;28;20108;-69
2023/01/31 05:46:44;;;;;;;24.73;2.50;;;8.50;99.90;;;;;;5054436;28;20565;-69
2023/01/31 05:49:10;;;;;;;14.32;2.30;;;8.50;99.90;;;;;;5054253;28;20251;-70
2023/01/31 05:51:35;;;;;;;15.20;2.38;;;8.60;99.90;;;;;;5054144;28;20036;-70
2023/01/31 05:54:01;;;;;;;20.20;2.63;;;8.60;99.90;;;;;;5049608;28;20420;-69
2023/01/31 05:56:27;;;;;;;10.85;2.13;;;8.60;99.90;;;;;;5054144;28;20021;-69
2023/01/31 05:58:53;;;;;;;14.45;2.17;;;8.70;99.90;;;;;;5048722;28;20030;-70
2023/01/31 06:01:24;;;;;;;13.20;2.45;;;8.70;99.90;;;;;;5033959;28;20025;-69
2023/01/31 06:03:50;;;;;;;13.13;1.80;;;8.70;99.90;;;;;;5033840;28;20028;-70
2023/01/31 06:06:16;;;;;;;8.70;2.28;;;8.70;99.90;;;;;;5033846;28;20128;-70
2023/01/31 06:08:42;;;;;;;12.75;2.22;;;8.70;99.90;;;;;;5049220;28;20026;-70
2023/01/31 06:11:12;;;;;;;4.80;1.45;;;8.80;99.90;;;;;;5051590;28;20021;-70
2023/01/31 06:13:42;;;;;;;10.23;2.30;;;8.80;99.90;;;;;;5053689;28;20025;-69
2023/01/31 06:16:08;;;;;;;14.35;1.98;;;8.80;99.90;;;;;;5054226;28;20397;-70
2023/01/31 06:18:33;;;;;;;11.15;2.08;;;8.80;99.90;;;;;;5065187;28;20045;-71
2023/01/31 06:20:59;;;;;;;16.70;2.70;;;8.90;99.90;;;;;;5053751;28;20020;-70
2023/01/31 06:23:25;;;;;;;8.35;1.60;;;8.80;99.90;;;;;;5052049;28;20029;-69
2023/01/31 06:25:51;;;;;;;10.77;2.40;;;8.80;99.90;;;;;;5053659;28;20017;-72
2023/01/31 06:28:18;;;;;;;14.63;3.00;;;8.90;99.90;;;;;;5052271;28;20435;-70
2023/01/31 06:30:43;;;;;;;15.43;2.58;;;8.90;99.90;;;;;;5051317;28;20117;-71
2023/01/31 06:33:10;;;;;;;16.27;2.70;;;8.90;99.90;;;;;;5052591;28;20108;-69
2023/01/31 06:35:36;;;;;;;12.40;2.45;;;8.90;99.90;;;;;;5053517;28;20031;-70
2023/01/31 06:38:02;;;;;;;15.48;2.25;;;8.80;99.90;;;;;;5052498;28;20032;-69
2023/01/31 06:40:27;;;;;;;15.77;2.42;;;8.80;99.90;;;;;;5053076;28;20040;-71
2023/01/31 06:42:53;;;;;;;12.27;2.90;;;8.80;99.90;;;;;;5052875;28;20451;-70
2023/01/31 06:45:19;;;;;;;15.55;2.17;;;8.90;99.90;;;;;;5053200;28;20025;-70
2023/01/31 06:47:45;;;;;;;10.85;2.25;;;8.90;99.90;;;;;;5052036;28;20036;-70
2023/01/31 06:50:11;;;;;;;16.85;1.95;;;8.90;99.90;;;;;;5052558;28;20636;-70
2023/01/31 06:52:38;;;;;;;12.65;1.83;;;8.90;99.90;;;;;;5051975;28;20029;-70
2023/01/31 06:55:05;;;;;;;9.68;1.77;;;8.80;99.90;;;;;;5051872;28;20025;-69
2023/01/31 06:57:31;;;;;;;8.60;1.40;;;8.90;99.90;;;;;;5052083;28;20025;-70
2023/01/31 06:59:56;;;;;;;16.50;2.83;;;8.90;99.90;;;;;;5052315;28;20090;-71
2023/01/31 07:02:22;;;;;;;9.57;2.05;;;8.90;99.90;;;;;;5053058;28;20587;-71
2023/01/31 07:04:48;;;;;;;11.93;2.80;;;8.90;99.90;;;;;;5053238;28;20094;-69
2023/01/31 07:07:13;;;;;;;12.43;2.13;;;8.90;99.90;;;;;;5052282;28;20076;-70
2023/01/31 07:09:39;;;;;;;11.23;1.60;;;9.00;99.90;;;;;;5056082;28;20046;-70
2023/01/31 07:12:04;;;;;;;11.77;1.77;;;9.00;99.90;;;;;;5056820;28;20355;-70
2023/01/31 07:14:30;;;;;;;10.82;2.10;;;9.00;99.90;;;;;;5057170;28;20025;-70
2023/01/31 07:16:56;;;;;;;14.93;2.03;;;9.00;99.90;;;;;;5057532;28;20045;-70
2023/01/31 07:19:22;;;;;;;12.45;2.75;;;9.00;99.90;;;;;;5052865;28;20041;-70
2023/01/31 07:21:48;;;;;;;7.35;1.42;;;9.00;99.90;;;;;;5051303;28;20083;-70
2023/01/31 07:24:14;;;;;;;13.00;1.90;;;9.10;99.90;;;;;;5052318;28;20017;-70
2023/01/31 07:26:40;;;;;;;11.57;2.03;;;9.10;99.90;;;;;;5052887;28;20385;-70
2023/01/31 07:29:06;;;;;;;16.10;2.28;;;9.10;99.90;;;;;;5051961;28;20021;-69
2023/01/31 07:31:32;;;;;;;18.25;2.53;;;9.20;99.90;;;;;;5057343;28;20020;-71
2023/01/31 07:33:58;;;;;;;14.10;2.15;;;9.20;99.90;;;;;;5055271;28;20500;-71
2023/01/31 07:36:25;;;;;;;13.23;2.13;;;9.20;99.90;;;;;;5051182;28;20021;-69
2023/01/31 07:38:55;;;;;;;15.38;2.88;;;9.20;99.90;;;;;;5051128;28;20048;-71
2023/01/31 07:41:22;;;;;;;6.00;2.40;;;9.20;99.90;;;;;;5051912;28;20044;-71
2023/01/31 07:43:47;;;;;;;16.50;2.13;;;9.10;99.90;;;;;;5050893;28;20107;-70
2023/01/31 07:46:13;;;;;;;15.57;2.65;;;9.00;99.90;;;;;;5051759;28;20025;-70
2023/01/31 07:48:39;;;;;;;10.60;2.22;;;8.90;99.90;;;;;;5051726;28;20485;-70
2023/01/31 07:51:05;;;;;;;9.07;1.63;;;8.90;99.90;;;;;;5051870;28;20052;-71
2023/01/31 07:53:33;;;;;;;13.80;1.60;;;8.80;99.90;;;;;;5050661;28;20021;-70
2023/01/31 07:56:28;;;;;;;6.30;1.70;;;8.80;99.90;;;;;;5050895;28;20033;-70
2023/01/31 07:58:54;;;;;;;20.10;2.72;;;8.80;99.90;;;;;;5045582;28;20041;-70
2023/01/31 08:04:12;;;;;;;13.10;1.77;;;8.80;99.90;;;;;;5051833;28;20036;-71
2023/01/31 08:06:39;;;;;;;16.38;2.80;;;8.70;99.90;;;;;;5050031;28;20041;-71
2023/01/31 08:09:04;;;;;;;14.35;2.05;;;8.80;99.90;;;;;;5051341;28;20314;-71
2023/01/31 08:11:30;;;;;;;10.57;1.30;;;8.80;99.90;;;;;;5051482;28;20408;-71
2023/01/31 08:13:56;;;;;;;18.65;3.28;;;8.80;99.90;;;;;;5051523;28;20053;-71
2023/01/31 08:16:21;;;;;;;20.40;3.13;;;8.80;99.90;;;;;;5050768;28;20098;-71
2023/01/31 08:18:48;;;;;;;16.23;2.92;;;8.90;99.90;;;;;;5051315;28;20028;-71
2023/01/31 08:21:14;;;;;;;17.40;2.22;;;8.90;99.90;;;;;;5051366;28;20103;-71
2023/01/31 08:23:41;;;;;;;17.70;1.88;;;8.90;99.90;;;;;;5051243;28;20090;-71
2023/01/31 08:26:12;;;;;;;14.00;2.15;;;8.90;99.90;;;;;;5051225;28;20078;-70
2023/01/31 08:28:40;;;;;;;9.35;2.13;;;9.00;99.90;;;;;;5051240;28;20113;-71
2023/01/31 08:31:06;;;;;;;22.27;2.30;;;9.00;99.90;;;;;;5050021;28;20401;-72
2023/01/31 08:33:32;;;;;;;19.10;2.75;;;9.00;99.90;;;;;;5050895;28;20048;-70
2023/01/31 08:36:09;;;;;;;17.38;1.92;;;9.00;99.90;;;;;;5049802;28;20063;-70
2023/01/31 08:38:35;;;;;;;10.15;1.95;;;9.20;99.90;;;;;;5050961;28;20037;-70
2023/01/31 08:41:00;;;;;;;16.17;2.17;;;9.20;99.90;;;;;;5051107;28;20116;-70
2023/01/31 08:43:26;;;;;;;21.60;2.45;;;9.30;99.90;;;;;;5050933;28;20029;-71
2023/01/31 08:45:52;;;;;;;9.65;2.28;;;9.30;99.90;;;;;;5050961;28;20070;-70
2023/01/31 08:48:17;;;;;;;20.85;2.50;;;9.50;99.90;;;;;;5051048;28;20025;-70
2023/01/31 08:50:43;;;;;;;25.77;3.40;;;9.60;99.90;;;;;;5050918;28;20032;-72
2023/01/31 08:53:09;;;;;;;16.27;2.67;;;9.60;99.90;;;;;;5049481;28;20036;-70
2023/01/31 08:55:35;;;;;;;21.05;3.45;;;9.70;99.90;;;;;;5050966;28;20036;-70
2023/01/31 08:58:02;;;;;;;26.00;6.38;;;9.70;99.90;;;;;;5050662;28;20075;-70
2023/01/31 09:00:28;;;;;;;17.15;3.47;;;9.70;99.90;;;;;;5051389;28;20063;-70
2023/01/31 09:02:56;;;;;;;18.17;2.90;;;9.80;99.90;;;;;;5050842;28;20024;-71
2023/01/31 09:05:22;;;;;;;24.45;2.95;;;9.90;99.90;;;;;;5049559;28;20037;-71
2023/01/31 09:07:48;;;;;;;16.60;2.55;;;10.00;99.90;;;;;;5050702;28;20021;-70
2023/01/31 09:10:14;;;;;;;13.10;3.53;;;10.10;99.90;;;;;;5050808;28;20025;-73
2023/01/31 09:12:39;;;;;;;14.63;2.08;;;10.30;99.90;;;;;;5050919;28;20032;-70
2023/01/31 09:15:06;;;;;;;19.40;3.92;;;10.40;99.90;;;;;;5049427;28;20044;-70
2023/01/31 09:17:31;;;;;;;20.88;2.83;;;10.40;99.90;;;;;;5050613;28;20358;-71
2023/01/31 09:19:57;;;;;;;18.35;2.45;;;10.50;99.90;;;;;;5050739;28;20250;-71
2023/01/31 09:22:23;;;;;;;17.13;2.30;;;10.60;99.90;;;;;;5050349;28;20021;-71
2023/01/31 09:24:49;;;;;;;18.52;2.78;;;10.70;99.90;;;;;;5050850;28;20021;-71
2023/01/31 09:27:15;;;;;;;35.35;2.72;;;10.80;99.90;;;;;;5050463;28;20022;-71
2023/01/31 09:29:40;;;;;;;20.75;2.75;;;10.90;99.90;;;;;;5050638;28;20037;-73
2023/01/31 09:32:06;;;;;;;23.63;2.95;;;10.90;99.90;;;;;;5050338;28;20474;-72
2023/01/31 09:34:32;;;;;;;19.77;2.88;;;11.00;99.90;;;;;;5049041;28;20052;-72
2023/01/31 09:36:58;;;;;;;17.42;2.22;;;11.10;99.90;;;;;;5050457;28;20017;-72
2023/01/31 09:39:24;;;;;;;16.90;2.55;;;11.10;99.90;;;;;;5050401;28;20611;-71
2023/01/31 09:41:56;;;;;;;14.77;3.10;;;11.10;99.90;;;;;;5050328;28;20104;-71
2023/01/31 09:44:30;;;;;;;16.85;2.00;;;11.20;99.90;;;;;;5052210;28;20385;-71
2023/01/31 09:47:10;;;;;;;19.13;3.13;;;11.30;99.90;;;;;;5054072;28;20033;-71
2023/01/31 09:49:53;;;;;;;31.73;3.00;;;11.40;99.90;;;;;;5054283;28;20434;-71
2023/01/31 09:52:21;;;;;;;20.08;2.85;;;11.50;99.90;;;;;;5053855;28;20025;-71
2023/01/31 09:54:46;;;;;;;27.15;2.72;;;11.60;99.90;;;;;;5054159;28;20057;-70
2023/01/31 09:57:12;;;;;;;23.83;2.92;;;11.60;99.90;;;;;;5054145;28;20067;-70
2023/01/31 10:00:08;;;;;;;12.63;2.10;;;11.70;99.90;;;;;;5053878;28;20028;-71
2023/01/31 10:02:52;;;;;;;23.17;2.67;;;11.60;99.90;;;;;;5053537;28;20045;-71
2023/01/31 10:05:35;;;;;;;19.45;2.42;;;11.50;99.90;;;;;;5053875;28;20051;-72
2023/01/31 10:08:06;;;;;;;20.30;2.70;;;11.40;99.90;;;;;;5053581;28;20112;-71
2023/01/31 10:10:42;;;;;;;11.27;2.13;;;11.40;99.90;;;;;;5053813;28;20029;-71
2023/01/31 10:13:15;;;;;;;10.68;2.35;;;11.50;99.90;;;;;;5053732;28;20043;-71
2023/01/31 10:15:52;;;;;;;18.90;3.95;;;11.40;99.90;;;;;;5053707;28;20333;-71
2023/01/31 10:18:35;;;;;;;17.85;3.22;;;11.40;99.90;;;;;;5053922;28;20103;-71
2023/01/31 10:21:12;;;;;;;18.40;2.45;;;11.50;99.90;;;;;;5053669;28;20112;-70
2023/01/31 10:23:43;;;;;;;15.73;2.40;;;11.50;99.90;;;;;;5052310;28;20052;-71
2023/01/31 10:26:18;;;;;;;16.73;3.05;;;11.50;99.90;;;;;;5053320;28;20036;-70
2023/01/31 10:28:53;;;;;;;15.55;2.55;;;11.60;99.90;;;;;;5053024;28;20040;-71
2023/01/31 10:31:30;;;;;;;9.50;2.10;;;11.70;99.90;;;;;;5053561;28;20404;-71
2023/01/31 10:34:09;;;;;;;14.95;2.65;;;11.70;99.90;;;;;;5052929;28;20024;-71
2023/01/31 10:36:51;;;;;;;24.95;3.00;;;11.70;99.90;;;;;;5053309;28;20300;-70
2023/01/31 10:39:28;;;;;;;13.82;2.55;;;11.80;99.90;;;;;;5052990;28;20120;-71
2023/01/31 10:42:03;;;;;;;26.48;2.90;;;11.90;99.90;;;;;;5053164;28;20032;-71
2023/01/31 10:45:00;;;;;;;14.27;2.33;;;12.00;99.90;;;;;;5053303;28;20020;-71
2023/01/31 10:47:33;;;;;;;18.92;2.42;;;12.00;99.90;;;;;;5053147;28;20370;-73
2023/01/31 10:49:59;;;;;;;24.10;2.75;;;12.00;99.90;;;;;;5053441;28;20017;-71
2023/01/31 10:52:44;;;;;;;24.52;3.72;;;12.00;99.90;;;;;;5052969;28;20025;-71
2023/01/31 10:55:45;;;;;;;16.80;2.13;;;12.00;99.90;;;;;;5052655;28;20029;-70
2023/01/31 10:58:16;;;;;;;24.98;3.85;;;12.10;99.90;;;;;;5032715;28;20033;-70
2023/01/31 11:00:42;;;;;;;11.65;1.92;;;12.30;99.90;;;;;;5052861;28;20029;-72
2023/01/31 11:03:11;;;;;;;15.45;1.90;;;12.30;99.90;;;;;;5052909;28;20025;-71
2023/01/31 11:06:00;;;;;;;16.80;2.53;;;12.20;99.90;;;;;;5052864;28;20025;-73
2023/01/31 11:08:37;;;;;;;23.52;3.13;;;12.20;99.90;;;;;;5051542;28;20099;-72
2023/01/31 11:11:12;;;;;;;14.85;2.38;;;12.10;99.90;;;;;;5052790;28;20235;-71
2023/01/31 11:13:38;;;;;;;15.30;2.05;;;12.10;99.90;;;;;;5053352;28;20094;-71
2023/01/31 11:16:09;;;;;;;15.00;2.13;;;12.10;99.90;;;;;;5052603;28;20060;-71
2023/01/31 11:18:47;;;;;;;16.60;2.80;;;12.10;99.90;;;;;;5052590;28;20060;-70
2023/01/31 11:21:29;;;;;;;12.05;1.98;;;12.10;99.90;;;;;;5052472;28;20033;-71
2023/01/31 11:24:20;;;;;;;14.10;2.55;;;12.00;99.90;;;;;;5053008;28;20018;-71
2023/01/31 11:26:59;;;;;;;16.13;2.55;;;12.10;99.90;;;;;;5052931;28;20070;-71
2023/01/31 11:29:29;;;;;;;15.05;3.00;;;12.10;99.90;;;;;;5052487;28;20116;-73
2023/01/31 11:31:57;;;;;;;12.40;2.38;;;12.10;99.90;;;;;;5052779;28;20484;-72
2023/01/31 11:34:30;;;;;;;17.45;3.17;;;12.10;99.90;;;;;;5052511;28;20116;-71
2023/01/31 11:37:22;;;;;;;12.45;2.63;;;12.10;99.90;;;;;;5052606;28;20071;-71
2023/01/31 11:39:59;;;;;;;12.23;1.90;;;12.10;99.90;;;;;;5050789;28;20132;-71
2023/01/31 11:42:25;;;;;;;25.67;3.65;;;12.10;99.90;;;;;;5052153;28;20555;-71
2023/01/31 11:45:18;;;;;;;25.95;2.63;;;12.20;99.90;;;;;;5052289;28;20122;-71
2023/01/31 11:48:24;;;;;;;15.32;2.38;;;12.30;99.90;;;;;;5052179;28;20021;-72
2023/01/31 11:50:56;;;;;;;18.48;2.25;;;12.40;99.90;;;;;;5049987;28;20423;-71
2023/01/31 11:53:46;;;;;;;11.23;2.90;;;12.40;99.90;;;;;;5051727;28;20096;-71
2023/01/31 11:56:25;;;;;;;28.50;3.80;;;12.30;99.90;;;;;;5049031;28;20040;-70
2023/01/31 11:59:01;;;;;;;20.13;2.70;;;12.20;99.90;;;;;;5051695;28;20124;-71
2023/01/31 12:01:27;;;;;;;18.30;3.85;;;12.10;99.90;;;;;;5051605;28;20029;-71
2023/01/31 12:03:53;;;;;;;15.85;2.78;;;12.10;99.90;;;;;;5052027;28;20409;-70
2023/01/31 12:06:33;;;;;;;26.15;5.28;;;12.00;99.90;;;;;;5051655;28;20085;-72
2023/01/31 12:09:01;;;;;;;11.77;2.40;;;12.00;99.90;;;;;;5051781;28;20394;-72
2023/01/31 12:11:32;;;;;;;21.90;3.75;;;12.00;99.90;;;;;;5051579;28;20087;-72
2023/01/31 12:14:12;;;;;;;12.45;3.25;;;11.80;99.90;;;;;;5051614;28;20096;-71
2023/01/31 12:16:38;;;;;;;16.52;2.15;;;11.70;99.90;;;;;;5051096;28;20520;-70
2023/01/31 12:19:12;;;;;;;12.07;1.77;;;11.60;99.90;;;;;;5051440;28;20120;-69
2023/01/31 12:21:38;;;;;;;16.02;3.03;;;11.60;99.90;;;;;;5051632;28;20027;-71
2023/01/31 12:24:04;;;;;;;22.02;2.88;;;11.50;99.90;;;;;;5051909;28;20028;-69
2023/01/31 12:26:51;;;;;;;19.25;2.58;;;11.50;99.90;;;;;;5051353;28;20025;-71
2023/01/31 12:29:53;;;;;;;17.35;2.28;;;11.50;99.90;;;;;;5050059;28;20052;-70
2023/01/31 12:32:47;;;;;;;14.15;3.53;;;11.50;99.90;;;;;;5051149;28;20390;-69
2023/01/31 12:35:27;;;;;;;14.05;4.10;;;11.70;99.90;;;;;;5051921;28;20029;-70
2023/01/31 12:38:08;;;;;;;16.23;2.70;;;11.70;99.90;;;;;;5051845;28;20028;-70
2023/01/31 12:40:49;;;;;;;20.88;3.42;;;11.70;99.90;;;;;;5051995;28;20065;-69
2023/01/31 12:43:38;;;;;;;18.27;2.72;;;11.70;99.90;;;;;;5051212;28;20104;-70
2023/01/31 12:46:10;;;;;;;22.63;2.47;;;11.80;99.90;;;;;;5054012;28;20063;-71
2023/01/31 12:48:57;;;;;;;18.92;2.88;;;11.80;99.90;;;;;;5051589;28;20263;-70
2023/01/31 12:51:46;;;;;;;28.80;3.88;;;11.90;99.90;;;;;;5052016;28;20102;-70
2023/01/31 12:54:30;;;;;;;20.13;3.35;;;12.00;99.90;;;;;;5051072;28;20102;-70
2023/01/31 12:57:21;;;;;;;16.95;3.75;;;12.00;99.90;;;;;;5050886;28;20424;-70
2023/01/31 13:00:07;;;;;;;21.85;4.43;;;12.00;99.90;;;;;;5050950;28;20036;-71
2023/01/31 13:02:54;;;;;;;17.33;2.95;;;;;;;;;;5051044;28;20021;-72
2023/01/31 13:05:30;;;;;;;9.90;2.50;;;;;;;;;;5051214;28;20112;-72
2023/01/31 13:08:04;;;;;;;17.17;3.17;;;;;;;;;;5051431;28;20025;-72
2023/01/31 13:11:03;;;;;;;31.95;3.65;;;;;;;;;;5050884;28;20025;-72
2023/01/31 13:13:35;;;;;;;17.83;3.30;;;;;;;;;;5038543;28;20071;-71
2023/01/31 13:16:06;;;;;;;20.20;3.90;;;;;;;;;;5050470;28;20049;-70